sensor_id;sensor_type;location;lat;lon;timestamp;P1;durP1;ratioP1;P2;durP2;ratioP2
27275;SDS011;14772;47.398;8.080;2022-12-10T00:04:40;26.13;;;12.97;;
27275;SDS011;14772;47.398;8.080;2022-12-10T00:09:39;25.93;;;12.23;;
27275;SDS011;14772;47.398;8.080;2022-12-10T00:14:39;24.20;;;11.97;;
27275;SDS011;14772;47.398;8.080;2022-12-10T00:19:36;24.57;;;11.83;;
27275;SDS011;14772;47.398;8.080;2022-12-10T00:24:34;24.03;;;11.93;;
27275;SDS011;14772;47.398;8.080;2022-12-10T00:29:31;25.80;;;12.80;;
27275;SDS011;14772;47.398;8.080;2022-12-10T00:34:28;24.17;;;11.87;;
27275;SDS011;14772;47.398;8.080;2022-12-10T00:39:26;25.00;;;12.87;;
27275;SDS011;14772;47.398;8.080;2022-12-10T00:44:23;25.77;;;12.37;;
27275;SDS011;14772;47.398;8.080;2022-12-10T00:49:20;26.83;;;12.77;;
27275;SDS011;14772;47.398;8.080;2022-12-10T00:54:17;27.67;;;12.70;;
27275;SDS011;14772;47.398;8.080;2022-12-10T00:59:15;24.43;;;12.37;;
27275;SDS011;14772;47.398;8.080;2022-12-10T01:04:13;25.17;;;11.63;;
27275;SDS011;14772;47.398;8.080;2022-12-10T01:09:12;27.00;;;12.73;;
27275;SDS011;14772;47.398;8.080;2022-12-10T01:14:12;27.57;;;12.47;;
27275;SDS011;14772;47.398;8.080;2022-12-10T01:19:10;26.70;;;13.37;;
27275;SDS011;14772;47.398;8.080;2022-12-10T01:24:08;25.87;;;12.20;;
27275;SDS011;14772;47.398;8.080;2022-12-10T01:29:05;28.40;;;12.87;;
27275;SDS011;14772;47.398;8.080;2022-12-10T01:34:03;25.27;;;12.70;;
27275;SDS011;14772;47.398;8.080;2022-12-10T01:39:02;25.43;;;12.93;;
27275;SDS011;14772;47.398;8.080;2022-12-10T01:44:02;25.63;;;12.43;;
27275;SDS011;14772;47.398;8.080;2022-12-10T01:49:02;26.23;;;12.97;;
27275;SDS011;14772;47.398;8.080;2022-12-10T01:54:03;26.90;;;13.33;;
27275;SDS011;14772;47.398;8.080;2022-12-10T01:59:02;26.73;;;13.17;;
27275;SDS011;14772;47.398;8.080;2022-12-10T02:04:03;24.53;;;12.37;;
27275;SDS011;14772;47.398;8.080;2022-12-10T02:09:08;29.53;;;13.50;;
27275;SDS011;14772;47.398;8.080;2022-12-10T02:14:08;25.77;;;12.63;;
27275;SDS011;14772;47.398;8.080;2022-12-10T02:19:11;25.37;;;12.20;;
27275;SDS011;14772;47.398;8.080;2022-12-10T02:24:14;26.40;;;12.97;;
27275;SDS011;14772;47.398;8.080;2022-12-10T02:29:13;28.50;;;13.37;;
27275;SDS011;14772;47.398;8.080;2022-12-10T02:34:12;26.17;;;12.70;;
27275;SDS011;14772;47.398;8.080;2022-12-10T02:39:11;24.60;;;12.47;;
27275;SDS011;14772;47.398;8.080;2022-12-10T02:44:11;26.83;;;13.37;;
27275;SDS011;14772;47.398;8.080;2022-12-10T02:49:11;25.63;;;12.53;;
27275;SDS011;14772;47.398;8.080;2022-12-10T02:59:33;27.87;;;13.03;;
27275;SDS011;14772;47.398;8.080;2022-12-10T03:04:32;28.30;;;13.30;;
27275;SDS011;14772;47.398;8.080;2022-12-10T03:09:34;29.43;;;14.13;;
27275;SDS011;14772;47.398;8.080;2022-12-10T03:14:33;27.00;;;13.23;;
27275;SDS011;14772;47.398;8.080;2022-12-10T03:19:33;30.00;;;13.77;;
27275;SDS011;14772;47.398;8.080;2022-12-10T03:24:33;28.13;;;14.40;;
27275;SDS011;14772;47.398;8.080;2022-12-10T03:29:33;28.63;;;13.47;;
27275;SDS011;14772;47.398;8.080;2022-12-10T03:34:33;32.33;;;13.83;;
27275;SDS011;14772;47.398;8.080;2022-12-10T03:39:31;29.93;;;14.57;;
27275;SDS011;14772;47.398;8.080;2022-12-10T03:44:30;32.70;;;14.87;;
27275;SDS011;14772;47.398;8.080;2022-12-10T03:49:28;31.67;;;14.23;;
27275;SDS011;14772;47.398;8.080;2022-12-10T03:54:26;31.03;;;14.00;;
27275;SDS011;14772;47.398;8.080;2022-12-10T03:59:23;28.93;;;13.83;;
27275;SDS011;14772;47.398;8.080;2022-12-10T04:04:20;29.27;;;13.50;;
27275;SDS011;14772;47.398;8.080;2022-12-10T04:09:17;26.23;;;11.93;;
27275;SDS011;14772;47.398;8.080;2022-12-10T04:14:14;29.47;;;12.60;;
27275;SDS011;14772;47.398;8.080;2022-12-10T04:19:13;25.07;;;11.37;;
27275;SDS011;14772;47.398;8.080;2022-12-10T04:24:12;24.97;;;11.20;;
27275;SDS011;14772;47.398;8.080;2022-12-10T04:29:10;27.20;;;12.23;;
27275;SDS011;14772;47.398;8.080;2022-12-10T04:34:08;27.20;;;12.60;;
27275;SDS011;14772;47.398;8.080;2022-12-10T04:39:05;26.73;;;12.27;;
27275;SDS011;14772;47.398;8.080;2022-12-10T04:44:02;25.90;;;12.07;;
27275;SDS011;14772;47.398;8.080;2022-12-10T04:49:00;28.30;;;12.57;;
27275;SDS011;14772;47.398;8.080;2022-12-10T04:53:58;26.83;;;12.60;;
27275;SDS011;14772;47.398;8.080;2022-12-10T04:58:55;28.20;;;12.53;;
27275;SDS011;14772;47.398;8.080;2022-12-10T05:03:52;26.37;;;12.07;;
27275;SDS011;14772;47.398;8.080;2022-12-10T05:08:50;27.17;;;12.33;;
27275;SDS011;14772;47.398;8.080;2022-12-10T05:13:48;26.50;;;12.33;;
27275;SDS011;14772;47.398;8.080;2022-12-10T05:18:46;27.30;;;12.40;;
27275;SDS011;14772;47.398;8.080;2022-12-10T05:23:44;26.37;;;12.30;;
27275;SDS011;14772;47.398;8.080;2022-12-10T05:28:43;26.03;;;11.93;;
27275;SDS011;14772;47.398;8.080;2022-12-10T05:33:42;24.47;;;11.47;;
27275;SDS011;14772;47.398;8.080;2022-12-10T05:38:40;26.37;;;11.97;;
27275;SDS011;14772;47.398;8.080;2022-12-10T05:43:37;27.87;;;11.53;;
27275;SDS011;14772;47.398;8.080;2022-12-10T05:48:35;27.73;;;12.23;;
27275;SDS011;14772;47.398;8.080;2022-12-10T05:53:32;26.53;;;11.47;;
27275;SDS011;14772;47.398;8.080;2022-12-10T05:58:30;25.30;;;12.13;;
27275;SDS011;14772;47.398;8.080;2022-12-10T06:03:28;26.67;;;12.20;;
27275;SDS011;14772;47.398;8.080;2022-12-10T06:08:25;29.07;;;12.50;;
27275;SDS011;14772;47.398;8.080;2022-12-10T06:13:23;25.40;;;11.97;;
27275;SDS011;14772;47.398;8.080;2022-12-10T06:18:20;25.20;;;11.37;;
27275;SDS011;14772;47.398;8.080;2022-12-10T06:23:17;25.53;;;12.20;;
27275;SDS011;14772;47.398;8.080;2022-12-10T06:28:14;25.37;;;12.47;;
27275;SDS011;14772;47.398;8.080;2022-12-10T06:33:12;25.97;;;12.67;;
27275;SDS011;14772;47.398;8.080;2022-12-10T06:38:09;25.43;;;12.23;;
27275;SDS011;14772;47.398;8.080;2022-12-10T06:43:06;26.70;;;12.70;;
27275;SDS011;14772;47.398;8.080;2022-12-10T06:48:04;26.77;;;12.70;;
27275;SDS011;14772;47.398;8.080;2022-12-10T06:53:01;26.23;;;12.60;;
27275;SDS011;14772;47.398;8.080;2022-12-10T06:57:59;25.63;;;11.30;;
27275;SDS011;14772;47.398;8.080;2022-12-10T07:02:57;24.13;;;11.70;;
27275;SDS011;14772;47.398;8.080;2022-12-10T07:07:55;26.40;;;11.80;;
27275;SDS011;14772;47.398;8.080;2022-12-10T07:12:53;27.17;;;12.73;;
27275;SDS011;14772;47.398;8.080;2022-12-10T07:17:51;25.03;;;12.13;;
27275;SDS011;14772;47.398;8.080;2022-12-10T07:22:48;26.20;;;12.23;;
27275;SDS011;14772;47.398;8.080;2022-12-10T07:27:45;26.73;;;13.10;;
27275;SDS011;14772;47.398;8.080;2022-12-10T07:32:42;25.10;;;12.63;;
27275;SDS011;14772;47.398;8.080;2022-12-10T07:37:39;25.13;;;12.27;;
27275;SDS011;14772;47.398;8.080;2022-12-10T07:42:36;25.77;;;12.70;;
27275;SDS011;14772;47.398;8.080;2022-12-10T07:47:35;25.20;;;12.57;;
27275;SDS011;14772;47.398;8.080;2022-12-10T07:52:32;24.23;;;11.87;;
27275;SDS011;14772;47.398;8.080;2022-12-10T07:57:30;25.35;;;15.75;;
27275;SDS011;14772;47.398;8.080;2022-12-10T08:02:27;20.33;;;10.47;;
27275;SDS011;14772;47.398;8.080;2022-12-10T08:07:24;24.30;;;10.73;;
27275;SDS011;14772;47.398;8.080;2022-12-10T08:12:21;20.20;;;9.37;;
27275;SDS011;14772;47.398;8.080;2022-12-10T08:17:18;21.97;;;10.37;;
27275;SDS011;14772;47.398;8.080;2022-12-10T08:22:15;21.20;;;9.97;;
27275;SDS011;14772;47.398;8.080;2022-12-10T08:27:13;21.40;;;10.17;;
27275;SDS011;14772;47.398;8.080;2022-12-10T08:32:10;24.40;;;11.27;;
27275;SDS011;14772;47.398;8.080;2022-12-10T08:37:07;22.30;;;10.83;;
27275;SDS011;14772;47.398;8.080;2022-12-10T08:42:04;22.20;;;11.03;;
27275;SDS011;14772;47.398;8.080;2022-12-10T08:47:02;22.77;;;10.40;;
27275;SDS011;14772;47.398;8.080;2022-12-10T08:51:59;25.73;;;10.60;;
27275;SDS011;14772;47.398;8.080;2022-12-10T08:56:56;25.97;;;12.70;;
27275;SDS011;14772;47.398;8.080;2022-12-10T09:01:53;25.40;;;12.03;;
27275;SDS011;14772;47.398;8.080;2022-12-10T09:06:50;20.43;;;10.07;;
27275;SDS011;14772;47.398;8.080;2022-12-10T09:11:48;20.43;;;9.60;;
27275;SDS011;14772;47.398;8.080;2022-12-10T09:16:45;25.30;;;10.97;;
27275;SDS011;14772;47.398;8.080;2022-12-10T09:21:42;21.67;;;10.53;;
27275;SDS011;14772;47.398;8.080;2022-12-10T09:26:41;22.80;;;8.57;;
27275;SDS011;14772;47.398;8.080;2022-12-10T09:31:40;16.83;;;7.63;;
27275;SDS011;14772;47.398;8.080;2022-12-10T09:36:38;15.03;;;6.67;;
27275;SDS011;14772;47.398;8.080;2022-12-10T09:41:54;15.43;;;6.80;;
27275;SDS011;14772;47.398;8.080;2022-12-10T09:47:09;17.23;;;7.43;;
27275;SDS011;14772;47.398;8.080;2022-12-10T09:52:10;17.40;;;6.80;;
27275;SDS011;14772;47.398;8.080;2022-12-10T09:57:14;15.37;;;6.53;;
27275;SDS011;14772;47.398;8.080;2022-12-10T10:02:18;14.50;;;6.23;;
27275;SDS011;14772;47.398;8.080;2022-12-10T10:07:21;14.87;;;6.40;;
27275;SDS011;14772;47.398;8.080;2022-12-10T10:12:21;16.80;;;7.00;;
27275;SDS011;14772;47.398;8.080;2022-12-10T10:17:20;15.40;;;6.73;;
27275;SDS011;14772;47.398;8.080;2022-12-10T10:22:20;17.70;;;6.87;;
27275;SDS011;14772;47.398;8.080;2022-12-10T10:27:18;17.00;;;6.97;;
27275;SDS011;14772;47.398;8.080;2022-12-10T10:32:17;18.57;;;7.37;;
27275;SDS011;14772;47.398;8.080;2022-12-10T10:42:37;19.47;;;8.37;;
27275;SDS011;14772;47.398;8.080;2022-12-10T10:47:36;19.83;;;8.53;;
27275;SDS011;14772;47.398;8.080;2022-12-10T10:52:36;21.23;;;9.57;;
27275;SDS011;14772;47.398;8.080;2022-12-10T10:57:35;22.20;;;9.40;;
27275;SDS011;14772;47.398;8.080;2022-12-10T11:02:34;21.40;;;9.60;;
27275;SDS011;14772;47.398;8.080;2022-12-10T11:07:34;22.97;;;9.90;;
27275;SDS011;14772;47.398;8.080;2022-12-10T11:12:34;22.40;;;10.03;;
27275;SDS011;14772;47.398;8.080;2022-12-10T11:17:32;23.53;;;10.00;;
27275;SDS011;14772;47.398;8.080;2022-12-10T11:22:31;23.70;;;10.50;;
27275;SDS011;14772;47.398;8.080;2022-12-10T11:27:45;25.67;;;11.27;;
27275;SDS011;14772;47.398;8.080;2022-12-10T11:32:46;24.10;;;11.40;;
27275;SDS011;14772;47.398;8.080;2022-12-10T11:38:05;26.63;;;11.87;;
27275;SDS011;14772;47.398;8.080;2022-12-10T11:43:18;27.73;;;12.70;;
27275;SDS011;14772;47.398;8.080;2022-12-10T11:48:32;27.07;;;12.37;;
27275;SDS011;14772;47.398;8.080;2022-12-10T11:53:40;26.10;;;12.20;;
27275;SDS011;14772;47.398;8.080;2022-12-10T11:58:47;27.83;;;12.23;;
27275;SDS011;14772;47.398;8.080;2022-12-10T12:03:59;28.40;;;12.23;;
27275;SDS011;14772;47.398;8.080;2022-12-10T12:09:21;26.20;;;12.10;;
27275;SDS011;14772;47.398;8.080;2022-12-10T12:14:22;25.17;;;11.23;;
27275;SDS011;14772;47.398;8.080;2022-12-10T12:19:23;22.17;;;9.87;;
27275;SDS011;14772;47.398;8.080;2022-12-10T12:24:25;22.47;;;10.67;;
27275;SDS011;14772;47.398;8.080;2022-12-10T12:29:26;28.23;;;11.00;;
27275;SDS011;14772;47.398;8.080;2022-12-10T12:34:27;22.83;;;10.83;;
27275;SDS011;14772;47.398;8.080;2022-12-10T12:39:28;24.27;;;11.50;;
27275;SDS011;14772;47.398;8.080;2022-12-10T12:44:29;24.13;;;10.87;;
27275;SDS011;14772;47.398;8.080;2022-12-10T12:49:31;22.83;;;10.37;;
27275;SDS011;14772;47.398;8.080;2022-12-10T12:59:34;21.83;;;9.93;;
27275;SDS011;14772;47.398;8.080;2022-12-10T13:04:35;24.77;;;11.80;;
27275;SDS011;14772;47.398;8.080;2022-12-10T13:09:32;21.70;;;10.43;;
27275;SDS011;14772;47.398;8.080;2022-12-10T13:14:33;24.73;;;10.93;;
27275;SDS011;14772;47.398;8.080;2022-12-10T13:19:32;22.93;;;10.90;;
27275;SDS011;14772;47.398;8.080;2022-12-10T13:30:31;20.80;;;9.50;;
27275;SDS011;14772;47.398;8.080;2022-12-10T13:35:31;21.57;;;9.57;;
27275;SDS011;14772;47.398;8.080;2022-12-10T13:40:37;22.27;;;10.17;;
27275;SDS011;14772;47.398;8.080;2022-12-10T13:45:37;21.13;;;10.07;;
27275;SDS011;14772;47.398;8.080;2022-12-10T13:50:35;23.53;;;10.70;;
27275;SDS011;14772;47.398;8.080;2022-12-10T13:55:36;23.00;;;10.53;;
27275;SDS011;14772;47.398;8.080;2022-12-10T14:00:37;22.50;;;9.97;;
27275;SDS011;14772;47.398;8.080;2022-12-10T14:05:42;24.60;;;11.07;;
27275;SDS011;14772;47.398;8.080;2022-12-10T14:10:46;23.37;;;10.23;;
27275;SDS011;14772;47.398;8.080;2022-12-10T14:15:46;24.00;;;10.27;;
27275;SDS011;14772;47.398;8.080;2022-12-10T14:20:45;23.30;;;10.70;;
27275;SDS011;14772;47.398;8.080;2022-12-10T14:25:45;23.33;;;9.63;;
27275;SDS011;14772;47.398;8.080;2022-12-10T14:30:43;22.53;;;9.93;;
27275;SDS011;14772;47.398;8.080;2022-12-10T14:35:41;21.57;;;10.17;;
27275;SDS011;14772;47.398;8.080;2022-12-10T14:40:41;22.73;;;10.17;;
27275;SDS011;14772;47.398;8.080;2022-12-10T14:45:40;24.50;;;10.40;;
27275;SDS011;14772;47.398;8.080;2022-12-10T14:50:39;23.47;;;11.27;;
27275;SDS011;14772;47.398;8.080;2022-12-10T14:55:37;24.07;;;10.90;;
27275;SDS011;14772;47.398;8.080;2022-12-10T15:00:34;23.30;;;10.33;;
27275;SDS011;14772;47.398;8.080;2022-12-10T15:05:32;25.00;;;10.67;;
27275;SDS011;14772;47.398;8.080;2022-12-10T15:10:32;21.87;;;9.67;;
27275;SDS011;14772;47.398;8.080;2022-12-10T15:15:32;25.10;;;10.47;;
27275;SDS011;14772;47.398;8.080;2022-12-10T15:20:32;22.30;;;9.97;;
27275;SDS011;14772;47.398;8.080;2022-12-10T15:25:40;23.80;;;10.40;;
27275;SDS011;14772;47.398;8.080;2022-12-10T15:30:39;23.83;;;11.10;;
27275;SDS011;14772;47.398;8.080;2022-12-10T15:35:36;23.37;;;11.33;;
27275;SDS011;14772;47.398;8.080;2022-12-10T15:40:33;27.30;;;11.83;;
27275;SDS011;14772;47.398;8.080;2022-12-10T15:45:38;25.10;;;11.50;;
27275;SDS011;14772;47.398;8.080;2022-12-10T15:50:36;23.37;;;10.90;;
27275;SDS011;14772;47.398;8.080;2022-12-10T15:55:34;25.50;;;11.40;;
27275;SDS011;14772;47.398;8.080;2022-12-10T16:00:31;23.90;;;10.83;;
27275;SDS011;14772;47.398;8.080;2022-12-10T16:05:29;23.70;;;11.23;;
27275;SDS011;14772;47.398;8.080;2022-12-10T16:10:29;24.37;;;11.83;;
27275;SDS011;14772;47.398;8.080;2022-12-10T16:15:27;25.97;;;11.70;;
27275;SDS011;14772;47.398;8.080;2022-12-10T16:20:27;24.50;;;12.17;;
27275;SDS011;14772;47.398;8.080;2022-12-10T16:25:28;25.33;;;11.67;;
27275;SDS011;14772;47.398;8.080;2022-12-10T16:30:29;24.53;;;11.60;;
27275;SDS011;14772;47.398;8.080;2022-12-10T16:35:29;27.47;;;12.20;;
27275;SDS011;14772;47.398;8.080;2022-12-10T16:40:27;24.77;;;12.40;;
27275;SDS011;14772;47.398;8.080;2022-12-10T16:45:40;25.20;;;11.83;;
27275;SDS011;14772;47.398;8.080;2022-12-10T16:50:38;29.70;;;12.73;;
27275;SDS011;14772;47.398;8.080;2022-12-10T16:55:35;26.67;;;12.00;;
27275;SDS011;14772;47.398;8.080;2022-12-10T17:00:32;25.33;;;11.97;;
27275;SDS011;14772;47.398;8.080;2022-12-10T17:05:31;28.40;;;13.17;;
27275;SDS011;14772;47.398;8.080;2022-12-10T17:10:31;25.13;;;12.43;;
27275;SDS011;14772;47.398;8.080;2022-12-10T17:15:28;27.87;;;13.87;;
27275;SDS011;14772;47.398;8.080;2022-12-10T17:20:25;27.77;;;13.57;;
27275;SDS011;14772;47.398;8.080;2022-12-10T17:25:23;30.57;;;13.37;;
27275;SDS011;14772;47.398;8.080;2022-12-10T17:30:20;26.90;;;12.50;;
27275;SDS011;14772;47.398;8.080;2022-12-10T17:35:17;28.30;;;13.20;;
27275;SDS011;14772;47.398;8.080;2022-12-10T17:40:17;28.47;;;13.13;;
27275;SDS011;14772;47.398;8.080;2022-12-10T17:45:17;31.03;;;13.93;;
27275;SDS011;14772;47.398;8.080;2022-12-10T17:50:17;30.53;;;14.10;;
27275;SDS011;14772;47.398;8.080;2022-12-10T17:55:19;28.93;;;13.63;;
27275;SDS011;14772;47.398;8.080;2022-12-10T18:00:18;26.03;;;13.20;;
27275;SDS011;14772;47.398;8.080;2022-12-10T18:05:16;27.87;;;13.77;;
27275;SDS011;14772;47.398;8.080;2022-12-10T18:10:15;29.23;;;13.43;;
27275;SDS011;14772;47.398;8.080;2022-12-10T18:15:15;28.70;;;14.17;;
27275;SDS011;14772;47.398;8.080;2022-12-10T18:20:16;28.70;;;13.83;;
27275;SDS011;14772;47.398;8.080;2022-12-10T18:25:15;31.20;;;14.53;;
27275;SDS011;14772;47.398;8.080;2022-12-10T18:30:15;28.37;;;14.53;;
27275;SDS011;14772;47.398;8.080;2022-12-10T18:35:14;29.50;;;14.40;;
27275;SDS011;14772;47.398;8.080;2022-12-10T18:40:13;30.63;;;14.83;;
27275;SDS011;14772;47.398;8.080;2022-12-10T18:45:12;32.00;;;15.50;;
27275;SDS011;14772;47.398;8.080;2022-12-10T18:50:11;28.80;;;14.13;;
27275;SDS011;14772;47.398;8.080;2022-12-10T19:00:21;28.63;;;14.57;;
27275;SDS011;14772;47.398;8.080;2022-12-10T19:05:20;31.07;;;14.77;;
27275;SDS011;14772;47.398;8.080;2022-12-10T19:10:18;29.67;;;14.23;;
27275;SDS011;14772;47.398;8.080;2022-12-10T19:15:18;30.67;;;13.70;;
27275;SDS011;14772;47.398;8.080;2022-12-10T19:20:17;27.00;;;13.17;;
27275;SDS011;14772;47.398;8.080;2022-12-10T19:25:16;27.93;;;13.63;;
27275;SDS011;14772;47.398;8.080;2022-12-10T19:30:15;26.77;;;13.23;;
27275;SDS011;14772;47.398;8.080;2022-12-10T19:35:14;29.27;;;13.83;;
27275;SDS011;14772;47.398;8.080;2022-12-10T19:40:16;33.80;;;15.20;;
27275;SDS011;14772;47.398;8.080;2022-12-10T19:45:23;31.17;;;15.80;;
27275;SDS011;14772;47.398;8.080;2022-12-10T19:50:22;32.17;;;15.07;;
27275;SDS011;14772;47.398;8.080;2022-12-10T19:55:21;31.67;;;15.07;;
27275;SDS011;14772;47.398;8.080;2022-12-10T20:00:19;30.80;;;15.23;;
27275;SDS011;14772;47.398;8.080;2022-12-10T20:05:19;30.27;;;15.13;;
27275;SDS011;14772;47.398;8.080;2022-12-10T20:10:17;26.93;;;13.13;;
27275;SDS011;14772;47.398;8.080;2022-12-10T20:15:16;27.17;;;12.60;;
27275;SDS011;14772;47.398;8.080;2022-12-10T20:20:16;26.63;;;13.27;;
27275;SDS011;14772;47.398;8.080;2022-12-10T20:25:15;29.80;;;13.50;;
27275;SDS011;14772;47.398;8.080;2022-12-10T20:30:14;28.90;;;13.90;;
27275;SDS011;14772;47.398;8.080;2022-12-10T20:35:14;27.27;;;13.20;;
27275;SDS011;14772;47.398;8.080;2022-12-10T20:40:13;27.37;;;13.50;;
27275;SDS011;14772;47.398;8.080;2022-12-10T20:45:12;28.43;;;13.77;;
27275;SDS011;14772;47.398;8.080;2022-12-10T20:50:09;27.93;;;14.27;;
27275;SDS011;14772;47.398;8.080;2022-12-10T20:55:10;28.50;;;13.67;;
27275;SDS011;14772;47.398;8.080;2022-12-10T21:00:11;28.27;;;14.07;;
27275;SDS011;14772;47.398;8.080;2022-12-10T21:05:11;27.90;;;13.57;;
27275;SDS011;14772;47.398;8.080;2022-12-10T21:10:10;27.90;;;13.80;;
27275;SDS011;14772;47.398;8.080;2022-12-10T21:15:10;28.87;;;14.13;;
27275;SDS011;14772;47.398;8.080;2022-12-10T21:20:09;28.53;;;14.27;;
27275;SDS011;14772;47.398;8.080;2022-12-10T21:25:08;29.77;;;14.23;;
27275;SDS011;14772;47.398;8.080;2022-12-10T21:30:09;29.47;;;14.70;;
27275;SDS011;14772;47.398;8.080;2022-12-10T21:35:07;29.17;;;14.20;;
27275;SDS011;14772;47.398;8.080;2022-12-10T21:40:06;29.57;;;14.83;;
27275;SDS011;14772;47.398;8.080;2022-12-10T21:45:06;30.67;;;14.90;;
27275;SDS011;14772;47.398;8.080;2022-12-10T21:50:04;29.97;;;14.80;;
27275;SDS011;14772;47.398;8.080;2022-12-10T21:55:02;27.40;;;13.87;;
27275;SDS011;14772;47.398;8.080;2022-12-10T22:00:00;29.40;;;13.43;;
27275;SDS011;14772;47.398;8.080;2022-12-10T22:04:57;29.67;;;14.30;;
27275;SDS011;14772;47.398;8.080;2022-12-10T22:09:55;29.23;;;14.70;;
27275;SDS011;14772;47.398;8.080;2022-12-10T22:14:52;28.93;;;14.50;;
27275;SDS011;14772;47.398;8.080;2022-12-10T22:19:49;27.63;;;14.73;;
27275;SDS011;14772;47.398;8.080;2022-12-10T22:24:47;29.90;;;14.90;;
27275;SDS011;14772;47.398;8.080;2022-12-10T22:29:44;30.20;;;15.13;;
27275;SDS011;14772;47.398;8.080;2022-12-10T22:34:41;30.17;;;14.03;;
27275;SDS011;14772;47.398;8.080;2022-12-10T22:44:47;30.20;;;14.73;;
27275;SDS011;14772;47.398;8.080;2022-12-10T22:49:44;29.23;;;14.67;;
27275;SDS011;14772;47.398;8.080;2022-12-10T22:54:41;30.77;;;15.53;;
27275;SDS011;14772;47.398;8.080;2022-12-10T22:59:38;28.90;;;14.57;;
27275;SDS011;14772;47.398;8.080;2022-12-10T23:04:36;29.27;;;14.50;;
27275;SDS011;14772;47.398;8.080;2022-12-10T23:09:33;30.43;;;15.80;;
27275;SDS011;14772;47.398;8.080;2022-12-10T23:14:30;27.90;;;14.20;;
27275;SDS011;14772;47.398;8.080;2022-12-10T23:19:27;32.43;;;16.47;;
27275;SDS011;14772;47.398;8.080;2022-12-10T23:24:25;30.87;;;15.23;;
27275;SDS011;14772;47.398;8.080;2022-12-10T23:29:22;32.43;;;15.73;;
27275;SDS011;14772;47.398;8.080;2022-12-10T23:34:19;29.27;;;14.70;;
27275;SDS011;14772;47.398;8.080;2022-12-10T23:39:16;34.40;;;16.43;;
27275;SDS011;14772;47.398;8.080;2022-12-10T23:44:14;32.10;;;16.53;;
27275;SDS011;14772;47.398;8.080;2022-12-10T23:49:11;31.23;;;15.40;;
27275;SDS011;14772;47.398;8.080;2022-12-10T23:54:08;30.00;;;15.03;;
27275;SDS011;14772;47.398;8.080;2022-12-10T23:59:06;27.20;;;13.33;;
